sensor_id;sensor_type;location;lat;lon;timestamp;temperature;humidity
21085;DHT22;72320;50.082;20.000;2023-11-22T00:00:21;11.00;57.80
21085;DHT22;72320;50.082;20.000;2023-11-22T00:01:54;11.20;57.60
21085;DHT22;72320;50.082;20.000;2023-11-22T00:03:29;11.40;57.60
21085;DHT22;72320;50.082;20.000;2023-11-22T00:05:03;11.70;57.90
21085;DHT22;72320;50.082;20.000;2023-11-22T00:06:37;12.00;56.50
21085;DHT22;72320;50.082;20.000;2023-11-22T00:08:10;12.20;56.20
21085;DHT22;72320;50.082;20.000;2023-11-22T00:09:44;12.40;55.40
21085;DHT22;72320;50.082;20.000;2023-11-22T00:11:20;12.50;55.40
21085;DHT22;72320;50.082;20.000;2023-11-22T00:12:56;12.60;55.20
21085;DHT22;72320;50.082;20.000;2023-11-22T00:14:30;12.70;54.80
21085;DHT22;72320;50.082;20.000;2023-11-22T00:16:03;12.80;54.80
21085;DHT22;72320;50.082;20.000;2023-11-22T00:17:36;12.90;54.50
21085;DHT22;72320;50.082;20.000;2023-11-22T00:19:10;12.90;54.30
21085;DHT22;72320;50.082;20.000;2023-11-22T00:20:42;12.70;54.20
21085;DHT22;72320;50.082;20.000;2023-11-22T00:22:16;12.40;54.60
21085;DHT22;72320;50.082;20.000;2023-11-22T00:23:49;12.40;54.90
21085;DHT22;72320;50.082;20.000;2023-11-22T00:25:22;12.30;55.00
21085;DHT22;72320;50.082;20.000;2023-11-22T00:26:55;12.40;54.90
21085;DHT22;72320;50.082;20.000;2023-11-22T00:28:28;12.50;54.80
21085;DHT22;72320;50.082;20.000;2023-11-22T00:30:01;12.20;54.90
21085;DHT22;72320;50.082;20.000;2023-11-22T00:31:36;12.30;55.10
21085;DHT22;72320;50.082;20.000;2023-11-22T00:33:09;12.30;55.30
21085;DHT22;72320;50.082;20.000;2023-11-22T00:34:42;12.30;54.80
21085;DHT22;72320;50.082;20.000;2023-11-22T00:36:15;12.50;55.00
21085;DHT22;72320;50.082;20.000;2023-11-22T00:37:49;12.80;54.80
21085;DHT22;72320;50.082;20.000;2023-11-22T00:39:22;12.90;54.20
21085;DHT22;72320;50.082;20.000;2023-11-22T00:40:55;13.00;53.70
21085;DHT22;72320;50.082;20.000;2023-11-22T00:42:27;13.10;53.70
21085;DHT22;72320;50.082;20.000;2023-11-22T00:44:00;13.20;53.10
21085;DHT22;72320;50.082;20.000;2023-11-22T00:45:34;13.10;53.00
21085;DHT22;72320;50.082;20.000;2023-11-22T00:47:07;12.90;53.30
21085;DHT22;72320;50.082;20.000;2023-11-22T00:48:40;12.60;53.60
21085;DHT22;72320;50.082;20.000;2023-11-22T00:50:13;12.40;54.60
21085;DHT22;72320;50.082;20.000;2023-11-22T00:51:46;12.30;54.10
21085;DHT22;72320;50.082;20.000;2023-11-22T00:53:20;12.10;54.60
21085;DHT22;72320;50.082;20.000;2023-11-22T00:54:53;11.80;54.90
21085;DHT22;72320;50.082;20.000;2023-11-22T00:56:27;11.60;55.30
21085;DHT22;72320;50.082;20.000;2023-11-22T00:58:00;11.60;56.20
21085;DHT22;72320;50.082;20.000;2023-11-22T00:59:33;11.70;55.60
21085;DHT22;72320;50.082;20.000;2023-11-22T01:01:06;11.90;55.40
21085;DHT22;72320;50.082;20.000;2023-11-22T01:02:39;11.90;55.50
21085;DHT22;72320;50.082;20.000;2023-11-22T01:04:13;11.90;55.20
21085;DHT22;72320;50.082;20.000;2023-11-22T01:05:46;11.90;55.40
21085;DHT22;72320;50.082;20.000;2023-11-22T01:07:19;12.00;55.40
21085;DHT22;72320;50.082;20.000;2023-11-22T01:08:51;12.00;55.10
21085;DHT22;72320;50.082;20.000;2023-11-22T01:10:24;11.90;55.40
21085;DHT22;72320;50.082;20.000;2023-11-22T01:11:58;12.10;55.20
21085;DHT22;72320;50.082;20.000;2023-11-22T01:13:32;12.20;54.80
21085;DHT22;72320;50.082;20.000;2023-11-22T01:15:06;12.10;54.70
21085;DHT22;72320;50.082;20.000;2023-11-22T01:16:40;12.00;55.20
21085;DHT22;72320;50.082;20.000;2023-11-22T01:18:13;12.10;55.10
21085;DHT22;72320;50.082;20.000;2023-11-22T01:19:47;12.30;55.20
21085;DHT22;72320;50.082;20.000;2023-11-22T01:21:20;12.50;54.60
21085;DHT22;72320;50.082;20.000;2023-11-22T01:22:53;12.50;54.30
21085;DHT22;72320;50.082;20.000;2023-11-22T01:24:26;12.40;54.30
21085;DHT22;72320;50.082;20.000;2023-11-22T01:25:59;12.20;54.60
21085;DHT22;72320;50.082;20.000;2023-11-22T01:27:33;12.20;54.70
21085;DHT22;72320;50.082;20.000;2023-11-22T01:29:06;12.10;54.80
21085;DHT22;72320;50.082;20.000;2023-11-22T01:30:39;12.10;54.70
21085;DHT22;72320;50.082;20.000;2023-11-22T01:32:12;12.10;55.00
21085;DHT22;72320;50.082;20.000;2023-11-22T01:33:45;12.30;54.90
21085;DHT22;72320;50.082;20.000;2023-11-22T01:35:19;12.10;55.00
21085;DHT22;72320;50.082;20.000;2023-11-22T01:36:52;12.20;54.90
21085;DHT22;72320;50.082;20.000;2023-11-22T01:38:25;12.10;54.80
21085;DHT22;72320;50.082;20.000;2023-11-22T01:39:58;11.90;54.90
21085;DHT22;72320;50.082;20.000;2023-11-22T01:41:32;11.70;55.10
21085;DHT22;72320;50.082;20.000;2023-11-22T01:43:08;11.80;55.30
21085;DHT22;72320;50.082;20.000;2023-11-22T01:44:41;11.50;55.30
21085;DHT22;72320;50.082;20.000;2023-11-22T01:46:23;11.00;56.00
21085;DHT22;72320;50.082;20.000;2023-11-22T01:47:56;10.80;56.50
21085;DHT22;72320;50.082;20.000;2023-11-22T01:49:29;10.70;56.70
21085;DHT22;72320;50.082;20.000;2023-11-22T01:51:04;10.50;57.20
21085;DHT22;72320;50.082;20.000;2023-11-22T01:52:38;10.20;57.90
21085;DHT22;72320;50.082;20.000;2023-11-22T01:54:12;10.10;58.20
21085;DHT22;72320;50.082;20.000;2023-11-22T01:55:46;10.20;58.00
21085;DHT22;72320;50.082;20.000;2023-11-22T01:57:20;10.10;58.20
21085;DHT22;72320;50.082;20.000;2023-11-22T01:58:55;10.10;58.10
21085;DHT22;72320;50.082;20.000;2023-11-22T02:02:43;9.90;58.40
21085;DHT22;72320;50.082;20.000;2023-11-22T02:04:25;9.90;58.70
21085;DHT22;72320;50.082;20.000;2023-11-22T02:06:15;9.90;58.60
21085;DHT22;72320;50.082;20.000;2023-11-22T02:07:55;10.00;58.40
21085;DHT22;72320;50.082;20.000;2023-11-22T02:09:30;10.30;58.20
21085;DHT22;72320;50.082;20.000;2023-11-22T02:11:03;10.50;57.70
21085;DHT22;72320;50.082;20.000;2023-11-22T02:12:38;10.80;57.30
21085;DHT22;72320;50.082;20.000;2023-11-22T02:14:11;11.10;56.80
21085;DHT22;72320;50.082;20.000;2023-11-22T02:15:44;11.00;56.30
21085;DHT22;72320;50.082;20.000;2023-11-22T02:17:17;10.90;56.30
21085;DHT22;72320;50.082;20.000;2023-11-22T02:18:51;10.90;56.20
21085;DHT22;72320;50.082;20.000;2023-11-22T02:20:24;11.00;56.10
21085;DHT22;72320;50.082;20.000;2023-11-22T02:21:57;11.20;55.80
21085;DHT22;72320;50.082;20.000;2023-11-22T02:23:30;11.20;55.40
21085;DHT22;72320;50.082;20.000;2023-11-22T02:25:03;11.20;55.50
21085;DHT22;72320;50.082;20.000;2023-11-22T02:26:37;11.40;55.50
21085;DHT22;72320;50.082;20.000;2023-11-22T02:28:10;11.60;55.40
21085;DHT22;72320;50.082;20.000;2023-11-22T02:29:42;11.90;55.00
21085;DHT22;72320;50.082;20.000;2023-11-22T02:31:16;12.00;54.20
21085;DHT22;72320;50.082;20.000;2023-11-22T02:32:49;11.60;54.30
21085;DHT22;72320;50.082;20.000;2023-11-22T02:34:22;11.40;54.80
21085;DHT22;72320;50.082;20.000;2023-11-22T02:35:56;11.20;55.20
21085;DHT22;72320;50.082;20.000;2023-11-22T02:37:30;11.20;55.20
21085;DHT22;72320;50.082;20.000;2023-11-22T02:39:03;11.10;55.30
21085;DHT22;72320;50.082;20.000;2023-11-22T02:40:36;10.80;55.60
21085;DHT22;72320;50.082;20.000;2023-11-22T02:42:10;10.90;55.80
21085;DHT22;72320;50.082;20.000;2023-11-22T02:43:43;11.00;56.00
21085;DHT22;72320;50.082;20.000;2023-11-22T02:45:17;11.30;56.10
21085;DHT22;72320;50.082;20.000;2023-11-22T02:46:51;11.60;55.10
21085;DHT22;72320;50.082;20.000;2023-11-22T02:48:23;11.70;55.10
21085;DHT22;72320;50.082;20.000;2023-11-22T02:49:56;11.80;54.50
21085;DHT22;72320;50.082;20.000;2023-11-22T02:51:30;11.80;54.40
21085;DHT22;72320;50.082;20.000;2023-11-22T02:53:03;11.80;54.50
21085;DHT22;72320;50.082;20.000;2023-11-22T02:54:36;11.90;54.40
21085;DHT22;72320;50.082;20.000;2023-11-22T02:56:09;11.90;54.00
21085;DHT22;72320;50.082;20.000;2023-11-22T02:57:42;12.00;54.00
21085;DHT22;72320;50.082;20.000;2023-11-22T02:59:15;12.20;53.80
21085;DHT22;72320;50.082;20.000;2023-11-22T03:00:49;12.40;53.40
21085;DHT22;72320;50.082;20.000;2023-11-22T03:02:21;12.30;53.40
21085;DHT22;72320;50.082;20.000;2023-11-22T03:03:54;12.20;53.60
21085;DHT22;72320;50.082;20.000;2023-11-22T03:05:28;12.20;53.50
21085;DHT22;72320;50.082;20.000;2023-11-22T03:07:01;11.90;53.60
21085;DHT22;72320;50.082;20.000;2023-11-22T03:08:34;11.60;54.20
21085;DHT22;72320;50.082;20.000;2023-11-22T03:10:08;11.20;54.80
21085;DHT22;72320;50.082;20.000;2023-11-22T03:11:41;10.80;55.60
21085;DHT22;72320;50.082;20.000;2023-11-22T03:13:14;10.80;55.90
21085;DHT22;72320;50.082;20.000;2023-11-22T03:14:47;10.90;55.70
21085;DHT22;72320;50.082;20.000;2023-11-22T03:16:20;10.90;55.70
21085;DHT22;72320;50.082;20.000;2023-11-22T03:17:54;10.80;55.80
21085;DHT22;72320;50.082;20.000;2023-11-22T03:19:27;10.80;56.00
21085;DHT22;72320;50.082;20.000;2023-11-22T03:21:00;10.70;56.10
21085;DHT22;72320;50.082;20.000;2023-11-22T03:22:33;10.30;56.70
21085;DHT22;72320;50.082;20.000;2023-11-22T03:24:09;10.20;57.10
21085;DHT22;72320;50.082;20.000;2023-11-22T03:25:43;9.90;57.50
21085;DHT22;72320;50.082;20.000;2023-11-22T03:27:16;9.90;57.80
21085;DHT22;72320;50.082;20.000;2023-11-22T03:28:50;10.00;57.80
21085;DHT22;72320;50.082;20.000;2023-11-22T03:30:23;10.30;57.30
21085;DHT22;72320;50.082;20.000;2023-11-22T03:31:56;10.50;56.90
21085;DHT22;72320;50.082;20.000;2023-11-22T03:33:29;10.80;56.40
21085;DHT22;72320;50.082;20.000;2023-11-22T03:35:03;10.80;56.10
21085;DHT22;72320;50.082;20.000;2023-11-22T03:36:36;10.70;56.40
21085;DHT22;72320;50.082;20.000;2023-11-22T03:38:09;10.80;55.80
21085;DHT22;72320;50.082;20.000;2023-11-22T03:39:42;10.60;56.20
21085;DHT22;72320;50.082;20.000;2023-11-22T03:41:16;10.50;56.40
21085;DHT22;72320;50.082;20.000;2023-11-22T03:42:49;10.40;56.30
21085;DHT22;72320;50.082;20.000;2023-11-22T03:44:22;10.10;56.70
21085;DHT22;72320;50.082;20.000;2023-11-22T03:45:55;10.30;56.70
21085;DHT22;72320;50.082;20.000;2023-11-22T03:47:28;10.30;56.50
21085;DHT22;72320;50.082;20.000;2023-11-22T03:49:05;10.40;56.50
21085;DHT22;72320;50.082;20.000;2023-11-22T03:50:38;10.30;56.70
21085;DHT22;72320;50.082;20.000;2023-11-22T03:52:12;10.30;56.70
21085;DHT22;72320;50.082;20.000;2023-11-22T03:53:45;10.20;56.70
21085;DHT22;72320;50.082;20.000;2023-11-22T03:55:18;10.20;56.70
21085;DHT22;72320;50.082;20.000;2023-11-22T03:56:51;10.00;56.90
21085;DHT22;72320;50.082;20.000;2023-11-22T03:58:24;9.80;57.10
21085;DHT22;72320;50.082;20.000;2023-11-22T03:59:57;9.70;57.40
21085;DHT22;72320;50.082;20.000;2023-11-22T04:01:30;9.80;57.40
21085;DHT22;72320;50.082;20.000;2023-11-22T04:03:03;9.60;57.50
21085;DHT22;72320;50.082;20.000;2023-11-22T04:04:37;9.90;57.50
21085;DHT22;72320;50.082;20.000;2023-11-22T04:06:10;9.90;57.10
21085;DHT22;72320;50.082;20.000;2023-11-22T04:07:43;9.80;57.00
21085;DHT22;72320;50.082;20.000;2023-11-22T04:09:16;9.70;57.30
21085;DHT22;72320;50.082;20.000;2023-11-22T04:10:49;9.70;57.50
21085;DHT22;72320;50.082;20.000;2023-11-22T04:12:23;9.90;57.00
21085;DHT22;72320;50.082;20.000;2023-11-22T04:13:57;9.90;57.10
21085;DHT22;72320;50.082;20.000;2023-11-22T04:15:32;10.00;56.70
21085;DHT22;72320;50.082;20.000;2023-11-22T04:17:06;10.10;56.70
21085;DHT22;72320;50.082;20.000;2023-11-22T04:18:40;10.10;56.60
21085;DHT22;72320;50.082;20.000;2023-11-22T04:20:15;10.20;56.50
21085;DHT22;72320;50.082;20.000;2023-11-22T04:21:48;10.40;56.20
21085;DHT22;72320;50.082;20.000;2023-11-22T04:23:21;10.50;55.70
21085;DHT22;72320;50.082;20.000;2023-11-22T04:24:54;10.50;55.60
21085;DHT22;72320;50.082;20.000;2023-11-22T04:26:27;10.60;55.60
21085;DHT22;72320;50.082;20.000;2023-11-22T04:28:00;10.70;55.10
21085;DHT22;72320;50.082;20.000;2023-11-22T04:29:33;10.90;55.00
21085;DHT22;72320;50.082;20.000;2023-11-22T04:31:07;11.00;54.80
21085;DHT22;72320;50.082;20.000;2023-11-22T04:32:41;11.20;54.40
21085;DHT22;72320;50.082;20.000;2023-11-22T04:34:15;11.20;54.10
21085;DHT22;72320;50.082;20.000;2023-11-22T04:35:49;11.10;54.40
21085;DHT22;72320;50.082;20.000;2023-11-22T04:37:22;11.20;54.20
21085;DHT22;72320;50.082;20.000;2023-11-22T04:38:55;11.30;53.90
21085;DHT22;72320;50.082;20.000;2023-11-22T04:40:29;11.30;53.70
21085;DHT22;72320;50.082;20.000;2023-11-22T04:42:03;11.30;53.60
21085;DHT22;72320;50.082;20.000;2023-11-22T04:43:36;11.20;53.50
21085;DHT22;72320;50.082;20.000;2023-11-22T04:45:10;11.30;53.40
21085;DHT22;72320;50.082;20.000;2023-11-22T04:46:43;11.30;53.40
21085;DHT22;72320;50.082;20.000;2023-11-22T04:48:16;11.50;53.30
21085;DHT22;72320;50.082;20.000;2023-11-22T04:49:50;11.50;53.10
21085;DHT22;72320;50.082;20.000;2023-11-22T04:51:23;11.40;53.40
21085;DHT22;72320;50.082;20.000;2023-11-22T04:52:56;11.60;53.20
21085;DHT22;72320;50.082;20.000;2023-11-22T04:54:29;11.60;52.80
21085;DHT22;72320;50.082;20.000;2023-11-22T04:56:03;11.50;52.90
21085;DHT22;72320;50.082;20.000;2023-11-22T04:57:37;11.30;53.00
21085;DHT22;72320;50.082;20.000;2023-11-22T04:59:10;11.00;53.30
21085;DHT22;72320;50.082;20.000;2023-11-22T05:00:43;10.90;53.50
21085;DHT22;72320;50.082;20.000;2023-11-22T05:02:16;10.90;53.80
21085;DHT22;72320;50.082;20.000;2023-11-22T05:03:49;10.80;53.80
21085;DHT22;72320;50.082;20.000;2023-11-22T05:05:26;10.70;54.00
21085;DHT22;72320;50.082;20.000;2023-11-22T05:06:59;10.80;54.00
21085;DHT22;72320;50.082;20.000;2023-11-22T05:08:32;10.70;54.10
21085;DHT22;72320;50.082;20.000;2023-11-22T05:10:06;10.60;54.20
21085;DHT22;72320;50.082;20.000;2023-11-22T05:11:39;10.70;54.10
21085;DHT22;72320;50.082;20.000;2023-11-22T05:13:13;10.40;54.70
21085;DHT22;72320;50.082;20.000;2023-11-22T05:14:46;10.40;54.70
21085;DHT22;72320;50.082;20.000;2023-11-22T05:16:19;10.60;54.40
21085;DHT22;72320;50.082;20.000;2023-11-22T05:17:55;10.70;54.50
21085;DHT22;72320;50.082;20.000;2023-11-22T05:19:28;10.90;54.00
21085;DHT22;72320;50.082;20.000;2023-11-22T05:21:02;10.70;53.60
21085;DHT22;72320;50.082;20.000;2023-11-22T05:22:36;10.30;54.50
21085;DHT22;72320;50.082;20.000;2023-11-22T05:24:09;10.30;54.80
21085;DHT22;72320;50.082;20.000;2023-11-22T05:25:42;10.40;54.60
21085;DHT22;72320;50.082;20.000;2023-11-22T05:27:15;10.70;54.20
21085;DHT22;72320;50.082;20.000;2023-11-22T05:28:49;10.70;54.10
21085;DHT22;72320;50.082;20.000;2023-11-22T05:30:21;10.50;54.20
21085;DHT22;72320;50.082;20.000;2023-11-22T05:31:54;10.30;54.40
21085;DHT22;72320;50.082;20.000;2023-11-22T05:33:27;10.40;54.70
21085;DHT22;72320;50.082;20.000;2023-11-22T05:35:01;10.20;55.10
21085;DHT22;72320;50.082;20.000;2023-11-22T05:36:34;10.20;55.10
21085;DHT22;72320;50.082;20.000;2023-11-22T05:38:07;10.30;55.10
21085;DHT22;72320;50.082;20.000;2023-11-22T05:39:40;10.50;54.80
21085;DHT22;72320;50.082;20.000;2023-11-22T05:41:14;10.50;54.80
21085;DHT22;72320;50.082;20.000;2023-11-22T05:42:47;10.20;55.30
21085;DHT22;72320;50.082;20.000;2023-11-22T05:44:20;10.10;55.60
21085;DHT22;72320;50.082;20.000;2023-11-22T05:45:53;10.10;55.50
21085;DHT22;72320;50.082;20.000;2023-11-22T05:47:27;10.10;55.50
21085;DHT22;72320;50.082;20.000;2023-11-22T05:49:00;10.20;55.50
21085;DHT22;72320;50.082;20.000;2023-11-22T05:50:33;10.00;55.60
21085;DHT22;72320;50.082;20.000;2023-11-22T05:52:06;10.10;55.70
21085;DHT22;72320;50.082;20.000;2023-11-22T05:53:40;10.40;55.40
21085;DHT22;72320;50.082;20.000;2023-11-22T05:55:13;10.40;55.20
21085;DHT22;72320;50.082;20.000;2023-11-22T05:56:46;10.40;55.10
21085;DHT22;72320;50.082;20.000;2023-11-22T05:58:19;10.40;55.20
21085;DHT22;72320;50.082;20.000;2023-11-22T05:59:52;10.50;55.20
21085;DHT22;72320;50.082;20.000;2023-11-22T06:01:26;10.70;54.90
21085;DHT22;72320;50.082;20.000;2023-11-22T06:02:59;10.70;54.60
21085;DHT22;72320;50.082;20.000;2023-11-22T06:04:32;10.70;54.60
21085;DHT22;72320;50.082;20.000;2023-11-22T06:06:05;10.60;54.60
21085;DHT22;72320;50.082;20.000;2023-11-22T06:07:40;10.50;54.70
21085;DHT22;72320;50.082;20.000;2023-11-22T06:09:13;10.40;54.60
21085;DHT22;72320;50.082;20.000;2023-11-22T06:10:46;10.20;54.90
21085;DHT22;72320;50.082;20.000;2023-11-22T06:12:19;10.30;55.10
21085;DHT22;72320;50.082;20.000;2023-11-22T06:13:52;10.50;54.80
21085;DHT22;72320;50.082;20.000;2023-11-22T06:15:25;10.50;54.60
21085;DHT22;72320;50.082;20.000;2023-11-22T06:17:01;10.60;54.80
21085;DHT22;72320;50.082;20.000;2023-11-22T06:18:35;10.90;54.70
21085;DHT22;72320;50.082;20.000;2023-11-22T06:20:09;11.10;54.30
21085;DHT22;72320;50.082;20.000;2023-11-22T06:21:42;11.40;53.80
21085;DHT22;72320;50.082;20.000;2023-11-22T06:23:16;11.50;53.80
21085;DHT22;72320;50.082;20.000;2023-11-22T06:24:49;11.60;53.30
21085;DHT22;72320;50.082;20.000;2023-11-22T06:26:22;11.70;52.80
21085;DHT22;72320;50.082;20.000;2023-11-22T06:27:55;11.90;52.60
21085;DHT22;72320;50.082;20.000;2023-11-22T06:29:31;12.10;52.20
21085;DHT22;72320;50.082;20.000;2023-11-22T06:31:05;12.30;52.00
21085;DHT22;72320;50.082;20.000;2023-11-22T06:32:38;12.30;51.60
21085;DHT22;72320;50.082;20.000;2023-11-22T06:34:11;12.20;51.40
21085;DHT22;72320;50.082;20.000;2023-11-22T06:35:46;12.10;51.50
21085;DHT22;72320;50.082;20.000;2023-11-22T06:37:20;11.80;51.70
21085;DHT22;72320;50.082;20.000;2023-11-22T06:38:53;11.50;51.80
21085;DHT22;72320;50.082;20.000;2023-11-22T06:40:26;10.90;52.40
21085;DHT22;72320;50.082;20.000;2023-11-22T06:41:59;10.70;52.80
21085;DHT22;72320;50.082;20.000;2023-11-22T06:43:33;10.70;53.00
21085;DHT22;72320;50.082;20.000;2023-11-22T06:45:07;10.30;53.50
21085;DHT22;72320;50.082;20.000;2023-11-22T06:46:41;10.30;53.90
21085;DHT22;72320;50.082;20.000;2023-11-22T06:48:14;10.40;53.80
21085;DHT22;72320;50.082;20.000;2023-11-22T06:49:47;10.50;53.70
21085;DHT22;72320;50.082;20.000;2023-11-22T06:51:21;10.50;54.20
21085;DHT22;72320;50.082;20.000;2023-11-22T06:52:54;10.50;53.70
21085;DHT22;72320;50.082;20.000;2023-11-22T06:54:27;10.70;53.40
21085;DHT22;72320;50.082;20.000;2023-11-22T06:56:00;11.00;53.30
21085;DHT22;72320;50.082;20.000;2023-11-22T06:57:33;11.20;52.80
21085;DHT22;72320;50.082;20.000;2023-11-22T06:59:07;11.30;52.40
21085;DHT22;72320;50.082;20.000;2023-11-22T07:00:40;11.20;52.10
21085;DHT22;72320;50.082;20.000;2023-11-22T07:02:13;11.00;52.40
21085;DHT22;72320;50.082;20.000;2023-11-22T07:03:46;10.90;52.40
21085;DHT22;72320;50.082;20.000;2023-11-22T07:05:19;10.70;53.30
21085;DHT22;72320;50.082;20.000;2023-11-22T07:06:53;10.50;52.90
21085;DHT22;72320;50.082;20.000;2023-11-22T07:08:26;10.40;53.20
21085;DHT22;72320;50.082;20.000;2023-11-22T07:09:59;10.50;53.30
21085;DHT22;72320;50.082;20.000;2023-11-22T07:11:32;10.80;53.00
21085;DHT22;72320;50.082;20.000;2023-11-22T07:13:05;11.10;52.70
21085;DHT22;72320;50.082;20.000;2023-11-22T07:14:39;11.20;52.10
21085;DHT22;72320;50.082;20.000;2023-11-22T07:16:12;11.10;52.20
21085;DHT22;72320;50.082;20.000;2023-11-22T07:17:45;10.70;52.40
21085;DHT22;72320;50.082;20.000;2023-11-22T07:19:18;10.80;52.40
21085;DHT22;72320;50.082;20.000;2023-11-22T07:20:51;10.90;52.20
21085;DHT22;72320;50.082;20.000;2023-11-22T07:22:24;10.70;52.30
21085;DHT22;72320;50.082;20.000;2023-11-22T07:23:57;10.70;52.50
21085;DHT22;72320;50.082;20.000;2023-11-22T07:25:31;10.70;52.40
21085;DHT22;72320;50.082;20.000;2023-11-22T07:27:04;10.70;52.50
21085;DHT22;72320;50.082;20.000;2023-11-22T07:28:37;10.90;52.20
21085;DHT22;72320;50.082;20.000;2023-11-22T07:30:12;10.90;52.00
21085;DHT22;72320;50.082;20.000;2023-11-22T07:31:46;10.70;52.20
21085;DHT22;72320;50.082;20.000;2023-11-22T07:33:19;10.60;52.50
21085;DHT22;72320;50.082;20.000;2023-11-22T07:34:52;10.50;52.60
21085;DHT22;72320;50.082;20.000;2023-11-22T07:36:25;10.30;52.80
21085;DHT22;72320;50.082;20.000;2023-11-22T07:37:59;10.10;53.10
21085;DHT22;72320;50.082;20.000;2023-11-22T07:39:36;10.10;53.50
21085;DHT22;72320;50.082;20.000;2023-11-22T07:41:10;10.20;53.30
21085;DHT22;72320;50.082;20.000;2023-11-22T07:42:44;10.40;53.10
21085;DHT22;72320;50.082;20.000;2023-11-22T07:44:19;10.50;52.70
21085;DHT22;72320;50.082;20.000;2023-11-22T07:45:52;10.50;52.80
21085;DHT22;72320;50.082;20.000;2023-11-22T07:47:25;10.50;52.60
21085;DHT22;72320;50.082;20.000;2023-11-22T07:48:58;10.30;53.00
21085;DHT22;72320;50.082;20.000;2023-11-22T07:50:32;10.10;53.20
21085;DHT22;72320;50.082;20.000;2023-11-22T07:52:06;10.20;53.40
21085;DHT22;72320;50.082;20.000;2023-11-22T07:53:39;10.50;53.30
21085;DHT22;72320;50.082;20.000;2023-11-22T07:55:12;10.80;52.70
21085;DHT22;72320;50.082;20.000;2023-11-22T07:56:45;11.00;52.10
21085;DHT22;72320;50.082;20.000;2023-11-22T07:58:18;10.70;52.20
21085;DHT22;72320;50.082;20.000;2023-11-22T07:59:53;10.30;52.80
21085;DHT22;72320;50.082;20.000;2023-11-22T08:01:26;10.10;53.30
21085;DHT22;72320;50.082;20.000;2023-11-22T08:03:00;10.00;53.40
21085;DHT22;72320;50.082;20.000;2023-11-22T08:04:33;10.00;53.60
21085;DHT22;72320;50.082;20.000;2023-11-22T08:06:06;10.10;53.50
21085;DHT22;72320;50.082;20.000;2023-11-22T08:07:39;10.30;53.20
21085;DHT22;72320;50.082;20.000;2023-11-22T08:09:12;10.10;53.40
21085;DHT22;72320;50.082;20.000;2023-11-22T08:10:46;9.90;54.40
21085;DHT22;72320;50.082;20.000;2023-11-22T08:12:19;9.60;54.40
21085;DHT22;72320;50.082;20.000;2023-11-22T08:13:52;9.70;54.40
21085;DHT22;72320;50.082;20.000;2023-11-22T08:15:25;9.80;54.30
21085;DHT22;72320;50.082;20.000;2023-11-22T08:16:58;9.70;54.20
21085;DHT22;72320;50.082;20.000;2023-11-22T08:18:31;9.70;54.50
21085;DHT22;72320;50.082;20.000;2023-11-22T08:20:05;9.90;54.30
21085;DHT22;72320;50.082;20.000;2023-11-22T08:21:43;10.10;53.80
21085;DHT22;72320;50.082;20.000;2023-11-22T08:23:16;10.30;53.70
21085;DHT22;72320;50.082;20.000;2023-11-22T08:24:49;10.60;53.00
21085;DHT22;72320;50.082;20.000;2023-11-22T08:26:22;10.60;52.90
21085;DHT22;72320;50.082;20.000;2023-11-22T08:27:55;10.60;52.70
21085;DHT22;72320;50.082;20.000;2023-11-22T08:29:29;10.40;52.90
21085;DHT22;72320;50.082;20.000;2023-11-22T08:31:02;10.30;53.00
21085;DHT22;72320;50.082;20.000;2023-11-22T08:32:35;10.30;53.20
21085;DHT22;72320;50.082;20.000;2023-11-22T08:34:08;10.50;53.10
21085;DHT22;72320;50.082;20.000;2023-11-22T08:35:41;10.90;52.70
21085;DHT22;72320;50.082;20.000;2023-11-22T08:37:15;10.80;52.20
21085;DHT22;72320;50.082;20.000;2023-11-22T08:38:48;10.60;52.30
21085;DHT22;72320;50.082;20.000;2023-11-22T08:40:21;10.40;53.10
21085;DHT22;72320;50.082;20.000;2023-11-22T08:41:55;10.40;52.60
21085;DHT22;72320;50.082;20.000;2023-11-22T08:43:28;10.20;52.80
21085;DHT22;72320;50.082;20.000;2023-11-22T08:45:09;9.80;53.30
21085;DHT22;72320;50.082;20.000;2023-11-22T08:46:42;9.70;53.70
21085;DHT22;72320;50.082;20.000;2023-11-22T08:48:16;9.60;53.90
21085;DHT22;72320;50.082;20.000;2023-11-22T08:49:50;9.70;53.90
21085;DHT22;72320;50.082;20.000;2023-11-22T08:51:23;9.70;54.00
21085;DHT22;72320;50.082;20.000;2023-11-22T08:52:57;9.60;54.10
21085;DHT22;72320;50.082;20.000;2023-11-22T08:54:30;9.50;54.40
21085;DHT22;72320;50.082;20.000;2023-11-22T08:56:06;9.70;54.50
21085;DHT22;72320;50.082;20.000;2023-11-22T08:57:39;10.00;54.00
21085;DHT22;72320;50.082;20.000;2023-11-22T08:59:13;10.20;53.80
21085;DHT22;72320;50.082;20.000;2023-11-22T09:00:46;10.40;53.50
21085;DHT22;72320;50.082;20.000;2023-11-22T09:02:20;10.70;53.20
21085;DHT22;72320;50.082;20.000;2023-11-22T09:03:53;10.60;52.60
21085;DHT22;72320;50.082;20.000;2023-11-22T09:05:26;10.40;52.50
21085;DHT22;72320;50.082;20.000;2023-11-22T09:06:59;10.20;52.70
21085;DHT22;72320;50.082;20.000;2023-11-22T09:08:33;10.30;52.80
21085;DHT22;72320;50.082;20.000;2023-11-22T09:10:07;10.40;52.50
21085;DHT22;72320;50.082;20.000;2023-11-22T09:11:41;10.40;52.40
21085;DHT22;72320;50.082;20.000;2023-11-22T09:13:14;10.30;52.40
21085;DHT22;72320;50.082;20.000;2023-11-22T09:14:47;10.20;52.60
21085;DHT22;72320;50.082;20.000;2023-11-22T09:16:20;10.20;52.50
21085;DHT22;72320;50.082;20.000;2023-11-22T09:17:53;10.50;52.30
21085;DHT22;72320;50.082;20.000;2023-11-22T09:19:26;10.30;52.20
21085;DHT22;72320;50.082;20.000;2023-11-22T09:20:59;10.00;52.60
21085;DHT22;72320;50.082;20.000;2023-11-22T09:22:32;9.90;53.00
21085;DHT22;72320;50.082;20.000;2023-11-22T09:24:05;9.80;53.00
21085;DHT22;72320;50.082;20.000;2023-11-22T09:25:39;9.90;53.00
21085;DHT22;72320;50.082;20.000;2023-11-22T09:27:12;9.90;53.00
21085;DHT22;72320;50.082;20.000;2023-11-22T09:28:45;9.90;53.00
21085;DHT22;72320;50.082;20.000;2023-11-22T09:30:22;9.90;53.00
21085;DHT22;72320;50.082;20.000;2023-11-22T09:31:56;9.90;53.00
21085;DHT22;72320;50.082;20.000;2023-11-22T09:33:29;9.90;52.80
21085;DHT22;72320;50.082;20.000;2023-11-22T09:35:03;10.00;52.80
21085;DHT22;72320;50.082;20.000;2023-11-22T09:36:36;10.00;52.80
21085;DHT22;72320;50.082;20.000;2023-11-22T09:38:10;10.10;52.50
21085;DHT22;72320;50.082;20.000;2023-11-22T09:39:44;10.10;52.40
21085;DHT22;72320;50.082;20.000;2023-11-22T09:41:17;10.10;52.40
21085;DHT22;72320;50.082;20.000;2023-11-22T09:42:50;10.10;52.50
21085;DHT22;72320;50.082;20.000;2023-11-22T09:44:24;10.40;52.20